createdAt,value
2018-03-07T00:02:28.753Z,119.30
2018-03-07T00:05:03.294Z,117.15
2018-03-07T00:07:37.996Z,128.45
2018-03-07T00:10:12.505Z,114.50
2018-03-07T00:12:47.008Z,142.25
2018-03-07T00:15:21.780Z,133.18
2018-03-07T00:17:57.044Z,127.43
2018-03-07T00:20:32.274Z,149.98
2018-03-07T00:23:07.695Z,123.15
2018-03-07T00:25:42.003Z,125.32
2018-03-07T00:28:16.722Z,134.30
2018-03-07T00:30:51.132Z,128.43
2018-03-07T00:33:25.583Z,127.80
2018-03-07T00:36:00.186Z,129.45
2018-03-07T00:38:36.279Z,124.60
2018-03-07T00:41:10.576Z,148.77
2018-03-07T00:43:45.927Z,131.82
2018-03-07T00:46:20.351Z,126.97
2018-03-07T00:48:54.897Z,134.23
2018-03-07T00:51:29.312Z,114.05
2018-03-07T00:54:03.831Z,134.32
2018-03-07T00:56:39.202Z,144.30
2018-03-07T00:59:13.890Z,131.00
2018-03-07T01:01:48.348Z,152.45
2018-03-07T01:04:23.757Z,135.45
2018-03-07T01:06:58.300Z,125.75
2018-03-07T01:09:32.995Z,139.30
2018-03-07T01:12:08.066Z,136.43
2018-03-07T01:14:42.607Z,131.07
2018-03-07T01:17:17.521Z,133.68
2018-03-07T01:19:52.643Z,126.82
2018-03-07T01:22:27.170Z,132.30
2018-03-07T01:25:02.011Z,130.00
2018-03-07T01:27:37.178Z,135.50
2018-03-07T01:30:11.648Z,122.47
2018-03-07T01:32:46.582Z,132.87
2018-03-07T01:35:22.024Z,125.95
2018-03-07T01:37:57.568Z,131.23
2018-03-07T01:40:32.818Z,138.90
2018-03-07T01:43:07.196Z,124.35
2018-03-07T01:45:41.600Z,136.90
2018-03-07T01:48:16.103Z,131.32
2018-03-07T01:50:51.985Z,125.55
2018-03-07T01:53:26.608Z,129.87
2018-03-07T01:56:01.175Z,133.48
2018-03-07T01:58:35.670Z,130.93
2018-03-07T02:01:10.224Z,128.73
2018-03-07T02:03:44.746Z,136.70
2018-03-07T02:06:20.096Z,133.32
2018-03-07T02:08:54.576Z,129.70
2018-03-07T02:11:29.163Z,126.15
2018-03-07T02:14:03.604Z,127.57
2018-03-07T02:16:37.989Z,128.90
2018-03-07T02:19:12.382Z,135.93
2018-03-07T02:21:47.026Z,135.80
2018-03-07T02:24:21.416Z,124.25
2018-03-07T02:26:55.953Z,135.82
2018-03-07T02:29:30.528Z,142.18
2018-03-07T02:32:05.061Z,133.70
2018-03-07T02:34:39.556Z,133.73
2018-03-07T02:37:18.694Z,138.27
2018-03-07T02:39:54.019Z,132.35
2018-03-07T02:42:28.451Z,124.68
2018-03-07T02:45:03.211Z,142.73
2018-03-07T02:47:37.796Z,127.55
2018-03-07T02:50:12.300Z,137.52
2018-03-07T02:52:47.717Z,128.32
2018-03-07T02:55:22.107Z,128.38
2018-03-07T02:57:56.697Z,137.75
2018-03-07T03:00:31.287Z,125.25
2018-03-07T03:03:05.951Z,128.15
2018-03-07T03:05:40.370Z,129.18
2018-03-07T03:08:15.013Z,137.23
2018-03-07T03:10:50.354Z,122.75
2018-03-07T03:13:25.180Z,136.88
2018-03-07T03:15:59.701Z,129.93
2018-03-07T03:18:35.261Z,139.32
2018-03-07T03:21:09.788Z,127.03
2018-03-07T03:23:45.109Z,143.98
2018-03-07T03:26:20.229Z,126.10
2018-03-07T03:28:55.868Z,139.90
2018-03-07T03:31:30.296Z,135.48
2018-03-07T03:34:05.464Z,137.15
2018-03-07T03:36:40.398Z,140.85
2018-03-07T03:39:15.519Z,133.95
2018-03-07T03:41:51.164Z,138.93
2018-03-07T03:44:26.616Z,132.15
2018-03-07T03:47:01.085Z,142.02
2018-03-07T03:49:35.864Z,135.12
2018-03-07T03:52:10.313Z,130.10
2018-03-07T03:54:45.177Z,137.95
2018-03-07T03:57:19.748Z,139.30
2018-03-07T03:59:54.399Z,136.75
2018-03-07T04:02:28.847Z,142.48
2018-03-07T04:05:03.414Z,146.13
2018-03-07T04:07:37.813Z,145.25
2018-03-07T04:10:12.718Z,137.05
2018-03-07T04:12:47.220Z,135.80
2018-03-07T04:15:21.669Z,139.12
2018-03-07T04:17:56.065Z,138.05
2018-03-07T04:20:30.760Z,130.50
2018-03-07T04:23:05.411Z,134.93
2018-03-07T04:25:40.225Z,142.98
2018-03-07T04:28:14.638Z,136.65
2018-03-07T04:30:49.467Z,132.25
2018-03-07T04:33:23.923Z,136.90
2018-03-07T04:35:58.714Z,138.35
2018-03-07T04:38:33.282Z,143.43
2018-03-07T04:41:07.684Z,130.35
2018-03-07T04:43:42.238Z,145.95
2018-03-07T04:46:16.592Z,137.95
2018-03-07T04:48:51.429Z,137.23
2018-03-07T04:51:26.059Z,132.12
2018-03-07T04:54:00.511Z,133.60
2018-03-07T04:56:35.104Z,140.55
2018-03-07T04:59:09.577Z,132.15
2018-03-07T05:01:45.181Z,153.15
2018-03-07T05:04:19.751Z,137.45
2018-03-07T05:06:54.428Z,143.80
2018-03-07T05:09:28.886Z,135.57
2018-03-07T05:12:04.232Z,147.02
2018-03-07T05:14:38.801Z,151.30
2018-03-07T05:17:13.317Z,135.57
2018-03-07T05:19:47.709Z,146.35
2018-03-07T05:22:22.182Z,132.52
2018-03-07T05:24:57.496Z,153.68
2018-03-07T05:27:32.158Z,154.15
2018-03-07T05:30:06.727Z,138.80
2018-03-07T05:32:41.192Z,149.65
2018-03-07T05:35:16.145Z,145.15
2018-03-07T05:37:50.808Z,138.90
2018-03-07T05:40:25.836Z,142.55
2018-03-07T05:43:00.517Z,162.90
2018-03-07T05:45:34.933Z,164.88
2018-03-07T05:48:09.489Z,161.45
2018-03-07T05:50:43.839Z,148.98
2018-03-07T05:53:19.029Z,155.50
2018-03-07T05:55:53.293Z,154.73
2018-03-07T05:58:27.860Z,152.73
2018-03-07T06:01:02.173Z,140.05
2018-03-07T06:03:36.700Z,152.70
2018-03-07T06:06:12.055Z,155.15
2018-03-07T06:08:46.779Z,152.80
2018-03-07T06:11:21.221Z,150.70
2018-03-07T06:13:55.817Z,165.20
2018-03-07T06:16:30.277Z,156.93
2018-03-07T06:19:04.861Z,155.52
2018-03-07T06:21:40.083Z,157.60
2018-03-07T06:24:15.344Z,169.25
2018-03-07T06:26:49.852Z,177.00
2018-03-07T06:29:24.439Z,179.20
2018-03-07T06:31:58.861Z,173.30
2018-03-07T06:34:33.308Z,169.73
2018-03-07T06:37:07.771Z,171.32
2018-03-07T06:39:42.390Z,169.45
2018-03-07T06:42:16.977Z,166.70
2018-03-07T06:44:51.529Z,173.87
2018-03-07T06:47:25.997Z,169.68
2018-03-07T06:50:01.188Z,167.07
2018-03-07T06:52:35.653Z,183.15
2018-03-07T06:55:10.236Z,178.20
2018-03-07T06:57:44.760Z,172.82
2018-03-07T07:00:19.421Z,175.30
2018-03-07T07:02:54.449Z,170.23
2018-03-07T07:05:28.972Z,181.40
2018-03-07T07:08:04.106Z,178.43
2018-03-07T07:10:38.617Z,180.87
2018-03-07T07:13:13.548Z,175.23
2018-03-07T07:15:48.477Z,190.05
2018-03-07T07:18:23.025Z,178.70
2018-03-07T07:20:57.522Z,177.70
2018-03-07T07:23:32.342Z,177.77
2018-03-07T07:26:07.790Z,187.07
2018-03-07T07:28:42.265Z,196.25
2018-03-07T07:31:17.456Z,200.05
2018-03-07T07:33:51.926Z,208.13
2018-03-07T07:36:26.921Z,186.10
2018-03-07T07:39:01.380Z,201.70
2018-03-07T07:41:35.897Z,187.27
2018-03-07T07:44:10.366Z,182.07
2018-03-07T07:46:44.819Z,197.62
2018-03-07T07:49:19.270Z,180.18
2018-03-07T07:51:53.697Z,197.35
2018-03-07T07:54:28.134Z,210.80
2018-03-07T07:57:02.684Z,191.70
2018-03-07T07:59:37.228Z,189.35
2018-03-07T08:02:11.940Z,186.45
2018-03-07T08:04:46.433Z,204.95
2018-03-07T08:07:21.596Z,186.10
2018-03-07T08:09:55.996Z,192.65
2018-03-07T08:12:30.358Z,203.37
2018-03-07T08:15:04.870Z,187.62
2018-03-07T08:17:39.492Z,190.95
2018-03-07T08:20:14.054Z,199.02
2018-03-07T08:22:48.745Z,208.13
2018-03-07T08:25:23.337Z,199.70
2018-03-07T08:27:59.213Z,193.23
2018-03-07T08:30:33.735Z,199.85
2018-03-07T08:33:09.084Z,196.40
2018-03-07T08:35:43.720Z,203.30
2018-03-07T08:38:18.233Z,197.65
2018-03-07T08:40:53.564Z,186.52
2018-03-07T08:43:28.063Z,188.30
2018-03-07T08:46:02.584Z,189.35
2018-03-07T08:48:37.145Z,190.95
2018-03-07T08:51:11.560Z,212.07
2018-03-07T08:53:47.005Z,175.20
2018-03-07T08:56:22.300Z,188.18
2018-03-07T08:58:56.906Z,187.98
2018-03-07T09:01:31.341Z,180.10
2018-03-07T09:04:05.899Z,184.52
2018-03-07T09:06:41.045Z,197.62
2018-03-07T09:09:15.780Z,182.70
2018-03-07T09:11:50.218Z,198.38
2018-03-07T09:14:25.028Z,187.80
2018-03-07T09:16:59.599Z,173.68
2018-03-07T09:19:34.877Z,191.52
2018-03-07T09:22:10.046Z,184.15
2018-03-07T09:24:44.613Z,190.40
2018-03-07T09:27:19.297Z,181.43
2018-03-07T09:29:54.836Z,177.75
2018-03-07T09:32:30.092Z,190.18
2018-03-07T09:35:04.919Z,184.50
2018-03-07T09:37:39.615Z,173.10
2018-03-07T09:40:14.258Z,183.45
2018-03-07T09:42:48.664Z,179.82
2018-03-07T09:45:23.417Z,182.15
2018-03-07T09:47:57.801Z,195.62
2018-03-07T09:50:32.257Z,200.18
2018-03-07T09:53:06.656Z,190.68
2018-03-07T09:55:41.089Z,176.15
2018-03-07T09:58:16.230Z,179.80
2018-03-07T10:00:50.750Z,183.62
2018-03-07T10:03:25.245Z,173.85
2018-03-07T10:06:00.004Z,191.98
2018-03-07T10:08:34.426Z,180.77
2018-03-07T10:11:10.481Z,173.27
2018-03-07T10:13:45.013Z,182.32
2018-03-07T10:16:19.959Z,171.75
2018-03-07T10:18:54.439Z,180.45
2018-03-07T10:21:29.184Z,178.57
2018-03-07T10:24:03.625Z,173.57
2018-03-07T10:26:39.121Z,179.55
2018-03-07T10:29:13.468Z,161.50
2018-03-07T10:31:47.901Z,175.95
2018-03-07T10:34:23.210Z,178.65
2018-03-07T10:36:58.580Z,176.32
2018-03-07T10:39:32.874Z,178.73
2018-03-07T10:42:07.636Z,168.80
2018-03-07T10:44:42.124Z,182.15
2018-03-07T10:47:16.872Z,167.85
2018-03-07T10:49:51.272Z,165.12
2018-03-07T10:52:25.751Z,155.43
2018-03-07T10:55:00.258Z,167.93
2018-03-07T10:57:34.636Z,157.30
2018-03-07T11:00:09.784Z,156.98
2018-03-07T11:02:44.442Z,156.93
2018-03-07T11:05:18.768Z,161.20
2018-03-07T11:07:53.294Z,157.95
2018-03-07T11:10:28.952Z,163.60
2018-03-07T11:13:03.767Z,168.27
2018-03-07T11:15:38.277Z,156.35
2018-03-07T11:18:12.790Z,165.05
2018-03-07T11:20:47.108Z,159.25
2018-03-07T11:23:21.636Z,165.48
2018-03-07T11:25:56.781Z,157.88
2018-03-07T11:28:31.961Z,171.95
2018-03-07T11:31:06.328Z,161.32
2018-03-07T11:33:40.962Z,143.02
2018-03-07T11:36:15.573Z,162.32
2018-03-07T11:38:50.207Z,156.32
2018-03-07T11:41:25.488Z,163.37
2018-03-07T11:44:00.081Z,157.85
2018-03-07T11:46:34.356Z,157.55
2018-03-07T11:49:08.929Z,153.12
2018-03-07T11:51:43.216Z,157.45
2018-03-07T11:54:18.813Z,146.55
2018-03-07T11:56:53.250Z,151.95
2018-03-07T11:59:27.793Z,153.25
2018-03-07T12:02:02.248Z,147.18
2018-03-07T12:04:37.177Z,141.07
2018-03-07T12:07:11.652Z,133.93
2018-03-07T12:09:46.172Z,141.50
2018-03-07T12:12:20.526Z,145.80
2018-03-07T12:14:55.276Z,150.48
2018-03-07T12:17:30.537Z,132.45
2018-03-07T12:20:04.940Z,129.68
2018-03-07T12:22:39.581Z,132.30
2018-03-07T12:25:14.188Z,137.37
2018-03-07T12:27:48.620Z,137.93
2018-03-07T12:30:23.849Z,140.07
2018-03-07T12:32:58.342Z,127.38
2018-03-07T12:35:34.161Z,128.02
2018-03-07T12:38:08.669Z,131.90
2018-03-07T12:40:43.374Z,144.73
2018-03-07T12:43:18.633Z,131.05
2018-03-07T12:45:53.675Z,142.85
2018-03-07T12:48:28.127Z,127.78
2018-03-07T12:51:02.758Z,123.82
2018-03-07T12:53:37.524Z,129.38
2018-03-07T12:56:12.144Z,133.07
2018-03-07T12:58:47.083Z,136.37
2018-03-07T13:01:21.809Z,136.02
2018-03-07T13:03:56.196Z,138.80
2018-03-07T13:06:31.464Z,129.40
2018-03-07T13:09:05.829Z,124.72
2018-03-07T13:11:40.512Z,119.53
2018-03-07T13:14:15.048Z,123.13
2018-03-07T13:16:49.761Z,128.27
2018-03-07T13:19:24.188Z,124.70
2018-03-07T13:21:58.729Z,109.65
2018-03-07T13:24:33.957Z,114.40
2018-03-07T13:27:08.680Z,112.12
2018-03-07T13:29:43.249Z,115.12
2018-03-07T13:32:17.926Z,122.32
2018-03-07T13:34:53.070Z,122.40
2018-03-07T13:37:28.205Z,117.62
2018-03-07T13:40:02.521Z,110.32
2018-03-07T13:42:37.169Z,119.82
2018-03-07T13:45:11.525Z,115.28
2018-03-07T13:47:46.081Z,114.90
2018-03-07T13:50:21.353Z,110.07
2018-03-07T13:52:55.821Z,112.43
2018-03-07T13:55:30.293Z,121.55
2018-03-07T13:58:04.908Z,120.05
2018-03-07T14:00:39.277Z,114.53
2018-03-07T14:03:13.752Z,121.85
2018-03-07T14:05:48.200Z,120.18
2018-03-07T14:08:23.233Z,112.35
2018-03-07T14:10:57.637Z,108.10
2018-03-07T14:13:32.252Z,96.82
2018-03-07T14:16:06.718Z,106.93
2018-03-07T14:18:42.127Z,105.00
2018-03-07T14:21:16.541Z,106.72
2018-03-07T14:23:51.745Z,111.60
2018-03-07T14:26:26.296Z,113.85
2018-03-07T14:29:00.834Z,106.65
2018-03-07T14:31:35.357Z,114.65
2018-03-07T14:34:09.881Z,107.47
2018-03-07T14:36:44.604Z,109.10
2018-03-07T14:39:19.341Z,107.35
2018-03-07T14:41:55.211Z,113.68
2018-03-07T14:44:30.605Z,113.00
2018-03-07T14:47:05.701Z,107.85
2018-03-07T14:49:40.199Z,106.18
2018-03-07T14:52:14.649Z,103.43
2018-03-07T14:54:49.336Z,95.07
2018-03-07T14:57:23.829Z,100.45
2018-03-07T14:59:58.593Z,98.75
2018-03-07T15:02:33.029Z,106.40
2018-03-07T15:05:08.466Z,94.07
2018-03-07T15:07:43.020Z,103.40
2018-03-07T15:10:17.682Z,101.12
2018-03-07T15:12:52.192Z,105.37
2018-03-07T15:15:26.757Z,101.65
2018-03-07T15:18:01.784Z,103.78
2018-03-07T15:20:36.282Z,95.87
2018-03-07T15:23:10.531Z,96.97
2018-03-07T15:25:45.260Z,100.30
2018-03-07T15:28:20.013Z,93.72
2018-03-07T15:30:54.708Z,107.37
2018-03-07T15:33:29.393Z,99.35
2018-03-07T15:36:05.225Z,92.07
2018-03-07T15:38:39.654Z,85.82
2018-03-07T15:41:14.213Z,81.45
2018-03-07T15:43:48.700Z,87.20
2018-03-07T15:46:23.281Z,89.13
2018-03-07T15:48:57.688Z,86.95
2018-03-07T15:51:32.135Z,91.60
2018-03-07T15:54:06.613Z,91.22
2018-03-07T15:56:41.185Z,90.28
2018-03-07T15:59:15.648Z,93.28
2018-03-07T16:01:50.420Z,103.87
2018-03-07T16:04:25.554Z,93.40
2018-03-07T16:07:00.096Z,113.68
2018-03-07T16:09:34.556Z,96.95
2018-03-07T16:12:09.128Z,85.38
2018-03-07T16:14:44.476Z,92.45
2018-03-07T16:17:19.811Z,86.25
2018-03-07T16:19:54.285Z,89.65
2018-03-07T16:22:28.857Z,94.85
2018-03-07T16:25:03.378Z,92.07
2018-03-07T16:27:37.921Z,102.35
2018-03-07T16:30:12.365Z,85.80
2018-03-07T16:32:46.750Z,119.40
2018-03-07T16:35:21.266Z,82.20
2018-03-07T16:37:56.005Z,112.05
2018-03-07T16:40:30.789Z,71.43
2018-03-07T16:43:05.924Z,67.55
2018-03-07T16:45:40.394Z,69.68
2018-03-07T16:48:14.838Z,78.10
2018-03-07T16:50:49.405Z,84.87
2018-03-07T16:53:24.065Z,69.45
2018-03-07T16:55:58.577Z,76.00
2018-03-07T16:58:33.899Z,75.18
2018-03-07T17:01:08.349Z,73.05
2018-03-07T17:03:42.969Z,83.93
2018-03-07T17:06:17.406Z,84.53
2018-03-07T17:08:52.084Z,69.20
2018-03-07T17:11:26.528Z,82.72
2018-03-07T17:14:01.090Z,73.75
2018-03-07T17:16:35.505Z,70.68
2018-03-07T17:19:10.106Z,66.37
2018-03-07T17:21:44.693Z,65.28
2018-03-07T17:24:19.362Z,64.97
2018-03-07T17:26:53.672Z,60.33
2018-03-07T17:29:28.405Z,62.78
2018-03-07T17:32:02.842Z,68.95
2018-03-07T17:34:38.101Z,67.93
2018-03-07T17:37:13.206Z,72.03
2018-03-07T17:39:47.749Z,83.15
2018-03-07T17:42:23.686Z,76.18
2018-03-07T17:44:58.420Z,73.28
2018-03-07T17:47:34.094Z,73.35
2018-03-07T17:50:08.961Z,75.05
2018-03-07T17:52:43.505Z,79.18
2018-03-07T17:55:18.148Z,69.35
2018-03-07T17:57:52.666Z,79.03
2018-03-07T18:00:27.296Z,71.95
2018-03-07T18:03:01.721Z,71.82
2018-03-07T18:05:36.342Z,76.45
2018-03-07T18:08:10.888Z,67.93
2018-03-07T18:10:45.797Z,69.90
2018-03-07T18:13:20.277Z,63.28
2018-03-07T18:15:54.915Z,73.20
2018-03-07T18:18:29.642Z,76.07
2018-03-07T18:21:04.277Z,89.07
2018-03-07T18:23:39.432Z,77.12
2018-03-07T18:26:14.745Z,68.82
2018-03-07T18:28:49.247Z,72.25
2018-03-07T18:31:24.037Z,77.40
2018-03-07T18:33:59.184Z,78.43
2018-03-07T18:36:33.683Z,82.72
2018-03-07T18:39:08.082Z,87.28
2018-03-07T18:41:42.625Z,84.32
2018-03-07T18:44:17.256Z,73.25
2018-03-07T18:46:51.741Z,81.63
2018-03-07T18:49:26.116Z,68.60
2018-03-07T18:52:01.440Z,58.50
2018-03-07T18:54:36.021Z,61.05
2018-03-07T18:57:11.817Z,63.65
2018-03-07T18:59:47.482Z,73.20
2018-03-07T19:02:21.944Z,61.80
2018-03-07T19:04:56.333Z,70.05
2018-03-07T19:07:30.933Z,71.60
2018-03-07T19:10:05.556Z,70.95
2018-03-07T19:12:39.984Z,82.03
2018-03-07T19:15:14.493Z,79.43
2018-03-07T19:17:49.840Z,70.43
2018-03-07T19:20:24.953Z,65.82
2018-03-07T19:23:00.334Z,74.70
2018-03-07T19:25:34.665Z,83.85
2018-03-07T19:28:09.387Z,70.65
2018-03-07T19:30:43.868Z,74.80
2018-03-07T19:33:18.293Z,71.32
2018-03-07T19:35:52.722Z,72.40
2018-03-07T19:38:27.257Z,72.12
2018-03-07T19:41:01.758Z,83.40
2018-03-07T19:43:36.730Z,62.20
2018-03-07T19:46:11.057Z,59.92
2018-03-07T19:48:45.644Z,69.68
2018-03-07T19:51:20.043Z,68.97
2018-03-07T19:53:54.612Z,62.60
2018-03-07T19:56:28.997Z,68.05
2018-03-07T19:59:03.684Z,59.53
2018-03-07T20:01:39.017Z,64.75
2018-03-07T20:04:13.513Z,83.57
2018-03-07T20:06:47.937Z,71.00
2018-03-07T20:09:22.772Z,80.18
2018-03-07T20:11:57.604Z,77.55
2018-03-07T20:14:32.325Z,75.37
2018-03-07T20:17:06.847Z,65.85
2018-03-07T20:19:41.365Z,64.20
2018-03-07T20:22:15.904Z,64.87
2018-03-07T20:24:51.245Z,98.00
2018-03-07T20:27:25.711Z,61.67
2018-03-07T20:30:00.280Z,63.13
2018-03-07T20:32:34.683Z,88.12
2018-03-07T20:35:09.331Z,66.95
2018-03-07T20:37:43.765Z,72.65
2018-03-07T20:40:18.370Z,69.32
2018-03-07T20:42:52.850Z,62.55
2018-03-07T20:45:28.857Z,70.28
2018-03-07T20:48:03.569Z,75.87
2018-03-07T20:50:38.106Z,62.05
2018-03-07T20:53:12.653Z,70.03
2018-03-07T20:55:47.217Z,84.32
2018-03-07T20:58:21.699Z,62.50
2018-03-07T21:00:56.197Z,63.50
2018-03-07T21:03:30.628Z,70.55
2018-03-07T21:06:05.246Z,77.15
2018-03-07T21:08:39.832Z,74.68
2018-03-07T21:11:14.357Z,82.10
2018-03-07T21:13:49.423Z,88.75
2018-03-07T21:16:24.157Z,93.85
2018-03-07T21:18:59.508Z,85.32
2018-03-07T21:21:34.248Z,72.93
2018-03-07T21:24:08.688Z,82.72
2018-03-07T21:26:43.476Z,81.75
2018-03-07T21:29:17.997Z,80.12
2018-03-07T21:31:52.634Z,82.93
2018-03-07T21:34:26.985Z,81.87
2018-03-07T21:37:01.589Z,92.07
2018-03-07T21:39:36.052Z,72.15
2018-03-07T21:42:10.610Z,91.20
2018-03-07T21:44:45.068Z,83.45
2018-03-07T21:47:19.862Z,73.57
2018-03-07T21:49:54.701Z,81.53
2018-03-07T21:52:29.177Z,73.18
2018-03-07T21:55:04.560Z,75.82
2018-03-07T21:57:39.772Z,79.80
2018-03-07T22:00:14.312Z,67.05
2018-03-07T22:02:48.841Z,80.10
2018-03-07T22:05:24.097Z,83.35
2018-03-07T22:07:58.711Z,97.40
2018-03-07T22:10:33.201Z,94.82
2018-03-07T22:13:09.004Z,75.65
2018-03-07T22:15:44.117Z,86.78
2018-03-07T22:18:18.659Z,79.68
2018-03-07T22:20:53.245Z,82.25
2018-03-07T22:23:27.692Z,74.05
2018-03-07T22:26:02.909Z,83.00
2018-03-07T22:28:38.145Z,72.95
2018-03-07T22:31:12.645Z,77.07
2018-03-07T22:33:48.348Z,82.72
2018-03-07T22:36:22.699Z,83.87
2018-03-07T22:38:57.292Z,100.72
2018-03-07T22:41:31.702Z,100.32
2018-03-07T22:44:06.687Z,96.03
2018-03-07T22:46:41.325Z,99.40
2018-03-07T22:49:15.993Z,85.65
2018-03-07T22:51:50.442Z,81.85
2018-03-07T22:54:25.657Z,72.25
2018-03-07T22:57:00.178Z,93.15
2018-03-07T22:59:34.917Z,77.93
2018-03-07T23:02:10.558Z,75.05
2018-03-07T23:04:45.185Z,76.68
2018-03-07T23:07:19.582Z,73.62
2018-03-07T23:09:54.229Z,62.47
2018-03-07T23:12:28.677Z,68.40
2018-03-07T23:15:03.287Z,67.70
2018-03-07T23:17:37.881Z,62.03
2018-03-07T23:20:12.529Z,61.33
2018-03-07T23:22:46.941Z,58.90
2018-03-07T23:25:21.573Z,62.10
2018-03-07T23:27:56.077Z,67.72
2018-03-07T23:30:30.637Z,73.50
2018-03-07T23:33:05.077Z,83.43
2018-03-07T23:35:39.684Z,82.57
2018-03-07T23:38:14.931Z,91.72
2018-03-07T23:40:50.153Z,81.03
2018-03-07T23:43:24.637Z,77.05
2018-03-07T23:45:59.200Z,80.10
2018-03-07T23:48:33.807Z,84.37
2018-03-07T23:51:08.516Z,77.15
2018-03-07T23:53:42.761Z,81.35
2018-03-07T23:56:18.109Z,95.65
2018-03-07T23:58:53.236Z,83.00
